sensor_id;sensor_type;location;lat;lon;timestamp;temperature;humidity
48994;DHT22;34804;49.214;12.276;2023-01-04T00:02:17;0.60;93.90
48994;DHT22;34804;49.214;12.276;2023-01-04T00:04:44;0.60;93.80
48994;DHT22;34804;49.214;12.276;2023-01-04T00:07:10;0.60;93.90
48994;DHT22;34804;49.214;12.276;2023-01-04T00:09:37;0.60;93.90
48994;DHT22;34804;49.214;12.276;2023-01-04T00:12:04;0.70;94.00
48994;DHT22;34804;49.214;12.276;2023-01-04T00:14:31;0.70;94.00
48994;DHT22;34804;49.214;12.276;2023-01-04T00:16:58;0.70;94.10
48994;DHT22;34804;49.214;12.276;2023-01-04T00:19:24;0.80;94.10
48994;DHT22;34804;49.214;12.276;2023-01-04T00:21:51;0.70;94.20
48994;DHT22;34804;49.214;12.276;2023-01-04T00:24:18;0.70;94.40
48994;DHT22;34804;49.214;12.276;2023-01-04T00:26:45;0.70;94.40
48994;DHT22;34804;49.214;12.276;2023-01-04T00:29:12;0.80;94.60
48994;DHT22;34804;49.214;12.276;2023-01-04T00:31:39;0.80;94.60
48994;DHT22;34804;49.214;12.276;2023-01-04T00:34:08;0.80;94.60
48994;DHT22;34804;49.214;12.276;2023-01-04T00:36:36;0.90;94.70
48994;DHT22;34804;49.214;12.276;2023-01-04T00:39:03;1.00;94.70
48994;DHT22;34804;49.214;12.276;2023-01-04T00:41:41;0.90;94.50
48994;DHT22;34804;49.214;12.276;2023-01-04T00:44:27;0.90;94.70
48994;DHT22;34804;49.214;12.276;2023-01-04T00:46:54;0.90;94.90
48994;DHT22;34804;49.214;12.276;2023-01-04T00:49:21;1.00;94.90
48994;DHT22;34804;49.214;12.276;2023-01-04T00:51:48;1.10;94.90
48994;DHT22;34804;49.214;12.276;2023-01-04T00:54:15;1.10;94.80
48994;DHT22;34804;49.214;12.276;2023-01-04T00:56:43;1.10;94.80
48994;DHT22;34804;49.214;12.276;2023-01-04T00:59:12;1.10;94.80
48994;DHT22;34804;49.214;12.276;2023-01-04T01:01:40;1.10;94.90
48994;DHT22;34804;49.214;12.276;2023-01-04T01:04:14;1.20;95.10
48994;DHT22;34804;49.214;12.276;2023-01-04T01:06:41;1.30;95.10
48994;DHT22;34804;49.214;12.276;2023-01-04T01:09:08;1.30;95.20
48994;DHT22;34804;49.214;12.276;2023-01-04T01:11:35;1.30;95.20
48994;DHT22;34804;49.214;12.276;2023-01-04T01:14:05;1.40;95.30
48994;DHT22;34804;49.214;12.276;2023-01-04T01:16:32;1.40;95.30
48994;DHT22;34804;49.214;12.276;2023-01-04T01:19:19;1.50;95.40
48994;DHT22;34804;49.214;12.276;2023-01-04T01:21:46;1.40;95.10
48994;DHT22;34804;49.214;12.276;2023-01-04T01:24:15;1.50;95.30
48994;DHT22;34804;49.214;12.276;2023-01-04T01:26:42;1.60;95.30
48994;DHT22;34804;49.214;12.276;2023-01-04T01:29:10;1.60;95.30
48994;DHT22;34804;49.214;12.276;2023-01-04T01:31:36;1.60;95.20
48994;DHT22;34804;49.214;12.276;2023-01-04T01:34:03;1.70;95.40
48994;DHT22;34804;49.214;12.276;2023-01-04T01:36:30;1.70;95.40
48994;DHT22;34804;49.214;12.276;2023-01-04T01:38:58;1.80;95.40
48994;DHT22;34804;49.214;12.276;2023-01-04T01:41:27;1.80;95.50
48994;DHT22;34804;49.214;12.276;2023-01-04T01:44:00;1.90;95.40
48994;DHT22;34804;49.214;12.276;2023-01-04T01:51:36;2.10;95.90
48994;DHT22;34804;49.214;12.276;2023-01-04T01:54:11;2.20;96.00
48994;DHT22;34804;49.214;12.276;2023-01-04T01:56:39;2.20;95.90
48994;DHT22;34804;49.214;12.276;2023-01-04T01:59:09;2.10;95.50
48994;DHT22;34804;49.214;12.276;2023-01-04T02:01:36;2.00;95.50
48994;DHT22;34804;49.214;12.276;2023-01-04T02:04:04;2.10;95.70
48994;DHT22;34804;49.214;12.276;2023-01-04T02:06:38;2.20;95.80
48994;DHT22;34804;49.214;12.276;2023-01-04T02:09:06;2.30;95.90
48994;DHT22;34804;49.214;12.276;2023-01-04T02:11:33;2.50;96.00
48994;DHT22;34804;49.214;12.276;2023-01-04T02:14:02;2.60;96.00
48994;DHT22;34804;49.214;12.276;2023-01-04T02:17:05;2.70;96.10
48994;DHT22;34804;49.214;12.276;2023-01-04T02:34:12;3.40;96.50
48994;DHT22;34804;49.214;12.276;2023-01-04T02:37:04;3.50;96.70
48994;DHT22;34804;49.214;12.276;2023-01-04T02:42:42;3.60;96.70
48994;DHT22;34804;49.214;12.276;2023-01-04T02:49:01;3.80;96.70
48994;DHT22;34804;49.214;12.276;2023-01-04T02:51:47;3.90;96.80
48994;DHT22;34804;49.214;12.276;2023-01-04T02:54:19;3.90;96.70
48994;DHT22;34804;49.214;12.276;2023-01-04T02:59:49;3.90;96.70
48994;DHT22;34804;49.214;12.276;2023-01-04T03:02:51;4.00;96.70
48994;DHT22;34804;49.214;12.276;2023-01-04T03:11:33;4.10;96.60
48994;DHT22;34804;49.214;12.276;2023-01-04T03:14:23;4.10;96.70
48994;DHT22;34804;49.214;12.276;2023-01-04T03:17:04;4.10;96.70
48994;DHT22;34804;49.214;12.276;2023-01-04T03:19:32;4.20;96.80
48994;DHT22;34804;49.214;12.276;2023-01-04T03:22:36;4.20;96.80
48994;DHT22;34804;49.214;12.276;2023-01-04T03:25:35;4.20;96.80
48994;DHT22;34804;49.214;12.276;2023-01-04T03:28:23;4.20;96.80
48994;DHT22;34804;49.214;12.276;2023-01-04T03:31:21;4.20;96.80
48994;DHT22;34804;49.214;12.276;2023-01-04T03:34:07;4.10;96.70
48994;DHT22;34804;49.214;12.276;2023-01-04T03:45:22;4.00;96.80
48994;DHT22;34804;49.214;12.276;2023-01-04T03:48:27;3.90;96.80
48994;DHT22;34804;49.214;12.276;2023-01-04T03:51:13;3.90;96.90
48994;DHT22;34804;49.214;12.276;2023-01-04T03:56:21;3.70;96.80
48994;DHT22;34804;49.214;12.276;2023-01-04T03:58:50;3.60;96.70
48994;DHT22;34804;49.214;12.276;2023-01-04T04:01:18;3.50;96.70
48994;DHT22;34804;49.214;12.276;2023-01-04T04:03:46;3.60;96.80
48994;DHT22;34804;49.214;12.276;2023-01-04T04:06:32;3.50;96.80
48994;DHT22;34804;49.214;12.276;2023-01-04T04:09:17;3.60;96.80
48994;DHT22;34804;49.214;12.276;2023-01-04T04:11:44;3.50;96.60
48994;DHT22;34804;49.214;12.276;2023-01-04T04:14:10;3.40;96.50
48994;DHT22;34804;49.214;12.276;2023-01-04T04:16:37;3.40;96.60
48994;DHT22;34804;49.214;12.276;2023-01-04T04:19:04;3.30;96.50
48994;DHT22;34804;49.214;12.276;2023-01-04T04:21:35;3.40;96.70
48994;DHT22;34804;49.214;12.276;2023-01-04T04:24:02;3.30;96.40
48994;DHT22;34804;49.214;12.276;2023-01-04T04:26:29;3.30;96.60
48994;DHT22;34804;49.214;12.276;2023-01-04T04:28:56;3.10;96.20
48994;DHT22;34804;49.214;12.276;2023-01-04T04:31:22;3.20;96.40
48994;DHT22;34804;49.214;12.276;2023-01-04T04:33:49;3.10;96.20
48994;DHT22;34804;49.214;12.276;2023-01-04T04:36:16;3.10;96.40
48994;DHT22;34804;49.214;12.276;2023-01-04T04:38:43;3.00;96.20
48994;DHT22;34804;49.214;12.276;2023-01-04T04:41:12;3.00;96.40
48994;DHT22;34804;49.214;12.276;2023-01-04T04:43:57;3.00;96.40
48994;DHT22;34804;49.214;12.276;2023-01-04T04:46:24;2.90;96.40
48994;DHT22;34804;49.214;12.276;2023-01-04T04:48:51;2.90;96.40
48994;DHT22;34804;49.214;12.276;2023-01-04T04:51:18;2.90;96.40
48994;DHT22;34804;49.214;12.276;2023-01-04T04:53:45;2.90;96.40
48994;DHT22;34804;49.214;12.276;2023-01-04T04:56:12;2.90;96.40
48994;DHT22;34804;49.214;12.276;2023-01-04T04:58:39;2.90;96.40
48994;DHT22;34804;49.214;12.276;2023-01-04T05:01:06;2.90;96.40
48994;DHT22;34804;49.214;12.276;2023-01-04T05:03:34;2.90;96.40
48994;DHT22;34804;49.214;12.276;2023-01-04T05:06:01;2.90;96.40
48994;DHT22;34804;49.214;12.276;2023-01-04T05:08:28;2.90;96.40
48994;DHT22;34804;49.214;12.276;2023-01-04T05:10:55;2.90;96.30
48994;DHT22;34804;49.214;12.276;2023-01-04T05:13:22;2.90;96.20
48994;DHT22;34804;49.214;12.276;2023-01-04T05:15:50;2.90;96.20
48994;DHT22;34804;49.214;12.276;2023-01-04T05:18:19;3.00;96.30
48994;DHT22;34804;49.214;12.276;2023-01-04T05:20:47;2.90;96.00
48994;DHT22;34804;49.214;12.276;2023-01-04T05:23:16;2.90;96.00
48994;DHT22;34804;49.214;12.276;2023-01-04T05:25:43;3.00;96.20
48994;DHT22;34804;49.214;12.276;2023-01-04T05:28:10;3.00;96.00
48994;DHT22;34804;49.214;12.276;2023-01-04T05:30:37;2.90;95.90
48994;DHT22;34804;49.214;12.276;2023-01-04T05:33:36;2.90;95.80
48994;DHT22;34804;49.214;12.276;2023-01-04T05:36:03;2.90;96.00
48994;DHT22;34804;49.214;12.276;2023-01-04T05:38:30;2.90;96.10
48994;DHT22;34804;49.214;12.276;2023-01-04T05:40:57;2.90;96.00
48994;DHT22;34804;49.214;12.276;2023-01-04T05:43:24;2.80;96.20
48994;DHT22;34804;49.214;12.276;2023-01-04T05:45:55;2.90;96.20
48994;DHT22;34804;49.214;12.276;2023-01-04T05:48:22;2.80;96.20
48994;DHT22;34804;49.214;12.276;2023-01-04T05:50:50;2.80;96.20
48994;DHT22;34804;49.214;12.276;2023-01-04T05:53:16;2.90;96.30
48994;DHT22;34804;49.214;12.276;2023-01-04T05:55:47;2.90;96.30
48994;DHT22;34804;49.214;12.276;2023-01-04T05:58:14;2.90;96.30
48994;DHT22;34804;49.214;12.276;2023-01-04T06:00:41;3.00;96.30
48994;DHT22;34804;49.214;12.276;2023-01-04T06:03:08;2.90;96.30
48994;DHT22;34804;49.214;12.276;2023-01-04T06:05:35;2.90;96.30
48994;DHT22;34804;49.214;12.276;2023-01-04T06:08:01;3.00;96.30
48994;DHT22;34804;49.214;12.276;2023-01-04T06:10:28;3.00;96.30
48994;DHT22;34804;49.214;12.276;2023-01-04T06:12:55;3.00;96.30
48994;DHT22;34804;49.214;12.276;2023-01-04T06:15:22;3.10;96.30
48994;DHT22;34804;49.214;12.276;2023-01-04T06:17:49;3.10;96.30
48994;DHT22;34804;49.214;12.276;2023-01-04T06:20:15;3.20;96.40
48994;DHT22;34804;49.214;12.276;2023-01-04T06:22:42;3.20;96.10
48994;DHT22;34804;49.214;12.276;2023-01-04T06:25:09;3.20;96.10
48994;DHT22;34804;49.214;12.276;2023-01-04T06:27:36;3.30;96.00
48994;DHT22;34804;49.214;12.276;2023-01-04T06:30:04;3.30;95.90
48994;DHT22;34804;49.214;12.276;2023-01-04T06:32:31;3.30;95.90
48994;DHT22;34804;49.214;12.276;2023-01-04T06:34:58;3.30;95.90
48994;DHT22;34804;49.214;12.276;2023-01-04T06:37:25;3.30;95.70
48994;DHT22;34804;49.214;12.276;2023-01-04T06:39:51;3.40;95.70
48994;DHT22;34804;49.214;12.276;2023-01-04T06:42:18;3.40;95.60
48994;DHT22;34804;49.214;12.276;2023-01-04T06:45:04;3.50;95.50
48994;DHT22;34804;49.214;12.276;2023-01-04T06:47:31;3.50;95.40
48994;DHT22;34804;49.214;12.276;2023-01-04T06:49:58;3.50;95.40
48994;DHT22;34804;49.214;12.276;2023-01-04T06:52:25;3.50;95.20
48994;DHT22;34804;49.214;12.276;2023-01-04T06:54:52;3.60;95.20
48994;DHT22;34804;49.214;12.276;2023-01-04T06:57:19;3.60;95.20
48994;DHT22;34804;49.214;12.276;2023-01-04T06:59:45;3.60;95.10
48994;DHT22;34804;49.214;12.276;2023-01-04T07:02:13;3.70;94.90
48994;DHT22;34804;49.214;12.276;2023-01-04T07:04:41;3.70;94.90
48994;DHT22;34804;49.214;12.276;2023-01-04T07:07:09;3.70;94.90
48994;DHT22;34804;49.214;12.276;2023-01-04T07:09:37;3.80;94.70
48994;DHT22;34804;49.214;12.276;2023-01-04T07:12:04;3.80;94.70
48994;DHT22;34804;49.214;12.276;2023-01-04T07:14:31;3.80;94.70
48994;DHT22;34804;49.214;12.276;2023-01-04T07:16:58;3.90;94.60
48994;DHT22;34804;49.214;12.276;2023-01-04T07:19:25;3.90;94.50
48994;DHT22;34804;49.214;12.276;2023-01-04T07:21:51;3.90;94.30
48994;DHT22;34804;49.214;12.276;2023-01-04T07:24:19;3.90;94.30
48994;DHT22;34804;49.214;12.276;2023-01-04T07:26:55;4.00;94.30
48994;DHT22;34804;49.214;12.276;2023-01-04T07:29:22;3.90;94.00
48994;DHT22;34804;49.214;12.276;2023-01-04T07:31:50;4.00;93.90
48994;DHT22;34804;49.214;12.276;2023-01-04T07:34:21;3.90;93.80
48994;DHT22;34804;49.214;12.276;2023-01-04T07:36:48;4.00;93.60
48994;DHT22;34804;49.214;12.276;2023-01-04T07:39:16;4.10;93.60
48994;DHT22;34804;49.214;12.276;2023-01-04T07:41:44;4.10;93.20
48994;DHT22;34804;49.214;12.276;2023-01-04T07:44:11;4.10;93.30
48994;DHT22;34804;49.214;12.276;2023-01-04T07:46:39;4.20;93.30
48994;DHT22;34804;49.214;12.276;2023-01-04T07:49:06;4.30;93.20
48994;DHT22;34804;49.214;12.276;2023-01-04T07:51:40;4.30;93.00
48994;DHT22;34804;49.214;12.276;2023-01-04T07:54:08;4.30;93.00
48994;DHT22;34804;49.214;12.276;2023-01-04T07:56:35;4.40;92.80
48994;DHT22;34804;49.214;12.276;2023-01-04T07:59:07;4.40;92.80
48994;DHT22;34804;49.214;12.276;2023-01-04T08:01:34;4.50;92.60
48994;DHT22;34804;49.214;12.276;2023-01-04T08:04:07;4.50;92.40
48994;DHT22;34804;49.214;12.276;2023-01-04T08:06:35;4.40;92.00
48994;DHT22;34804;49.214;12.276;2023-01-04T08:09:03;4.40;92.00
48994;DHT22;34804;49.214;12.276;2023-01-04T08:11:30;4.40;91.90
48994;DHT22;34804;49.214;12.276;2023-01-04T08:13:57;4.40;92.20
48994;DHT22;34804;49.214;12.276;2023-01-04T08:16:25;4.50;92.30
48994;DHT22;34804;49.214;12.276;2023-01-04T08:18:54;4.40;91.90
48994;DHT22;34804;49.214;12.276;2023-01-04T08:21:22;4.40;91.90
48994;DHT22;34804;49.214;12.276;2023-01-04T08:23:50;4.40;92.00
48994;DHT22;34804;49.214;12.276;2023-01-04T08:26:18;4.40;91.80
48994;DHT22;34804;49.214;12.276;2023-01-04T08:28:45;4.40;91.90
48994;DHT22;34804;49.214;12.276;2023-01-04T08:31:15;4.50;92.10
48994;DHT22;34804;49.214;12.276;2023-01-04T08:33:43;4.50;92.20
48994;DHT22;34804;49.214;12.276;2023-01-04T08:36:27;4.60;92.00
48994;DHT22;34804;49.214;12.276;2023-01-04T08:39:03;4.60;92.00
48994;DHT22;34804;49.214;12.276;2023-01-04T08:41:32;4.70;92.10
48994;DHT22;34804;49.214;12.276;2023-01-04T08:44:23;4.80;92.00
48994;DHT22;34804;49.214;12.276;2023-01-04T08:46:51;4.90;91.80
48994;DHT22;34804;49.214;12.276;2023-01-04T08:49:19;5.00;91.10
48994;DHT22;34804;49.214;12.276;2023-01-04T08:51:47;5.10;90.90
48994;DHT22;34804;49.214;12.276;2023-01-04T08:54:15;5.30;91.00
48994;DHT22;34804;49.214;12.276;2023-01-04T08:56:42;5.40;90.70
48994;DHT22;34804;49.214;12.276;2023-01-04T08:59:10;5.40;90.60
48994;DHT22;34804;49.214;12.276;2023-01-04T09:01:38;5.50;90.50
48994;DHT22;34804;49.214;12.276;2023-01-04T09:04:06;5.60;90.20
48994;DHT22;34804;49.214;12.276;2023-01-04T09:06:33;5.70;90.00
48994;DHT22;34804;49.214;12.276;2023-01-04T09:09:00;5.70;89.80
48994;DHT22;34804;49.214;12.276;2023-01-04T09:11:27;5.70;89.30
48994;DHT22;34804;49.214;12.276;2023-01-04T09:13:56;5.60;89.80
48994;DHT22;34804;49.214;12.276;2023-01-04T09:16:32;5.70;89.70
48994;DHT22;34804;49.214;12.276;2023-01-04T09:18:59;5.80;89.70
48994;DHT22;34804;49.214;12.276;2023-01-04T09:21:26;5.80;89.70
48994;DHT22;34804;49.214;12.276;2023-01-04T09:23:55;5.70;89.80
48994;DHT22;34804;49.214;12.276;2023-01-04T09:26:22;5.70;89.60
48994;DHT22;34804;49.214;12.276;2023-01-04T09:28:50;5.70;89.70
48994;DHT22;34804;49.214;12.276;2023-01-04T09:31:20;5.70;89.70
48994;DHT22;34804;49.214;12.276;2023-01-04T09:33:47;5.80;89.80
48994;DHT22;34804;49.214;12.276;2023-01-04T09:36:34;5.80;89.70
48994;DHT22;34804;49.214;12.276;2023-01-04T09:39:01;5.80;89.90
48994;DHT22;34804;49.214;12.276;2023-01-04T09:41:41;5.80;89.90
48994;DHT22;34804;49.214;12.276;2023-01-04T09:46:49;5.80;90.00
48994;DHT22;34804;49.214;12.276;2023-01-04T09:49:24;5.80;90.10
48994;DHT22;34804;49.214;12.276;2023-01-04T09:52:01;5.80;90.10
48994;DHT22;34804;49.214;12.276;2023-01-04T09:57:39;5.80;90.30
48994;DHT22;34804;49.214;12.276;2023-01-04T10:00:16;5.90;90.30
48994;DHT22;34804;49.214;12.276;2023-01-04T10:05:34;5.90;89.90
48994;DHT22;34804;49.214;12.276;2023-01-04T10:08:01;5.90;90.00
48994;DHT22;34804;49.214;12.276;2023-01-04T10:10:53;5.90;90.00
48994;DHT22;34804;49.214;12.276;2023-01-04T10:13:28;5.90;90.60
48994;DHT22;34804;49.214;12.276;2023-01-04T10:18:57;6.00;90.30
48994;DHT22;34804;49.214;12.276;2023-01-04T10:21:55;6.00;90.70
48994;DHT22;34804;49.214;12.276;2023-01-04T10:24:45;6.00;90.60
48994;DHT22;34804;49.214;12.276;2023-01-04T10:29:52;5.90;90.30
48994;DHT22;34804;49.214;12.276;2023-01-04T10:32:42;5.90;91.00
48994;DHT22;34804;49.214;12.276;2023-01-04T10:35:24;6.00;90.80
48994;DHT22;34804;49.214;12.276;2023-01-04T10:38:00;6.00;90.30
48994;DHT22;34804;49.214;12.276;2023-01-04T10:40:28;6.00;90.40
48994;DHT22;34804;49.214;12.276;2023-01-04T10:46:10;6.10;90.50
48994;DHT22;34804;49.214;12.276;2023-01-04T10:48:53;6.10;90.90
48994;DHT22;34804;49.214;12.276;2023-01-04T10:54:30;6.10;90.70
48994;DHT22;34804;49.214;12.276;2023-01-04T10:57:11;6.10;90.60
48994;DHT22;34804;49.214;12.276;2023-01-04T10:59:45;6.10;90.60
48994;DHT22;34804;49.214;12.276;2023-01-04T11:07:46;6.00;91.70
48994;DHT22;34804;49.214;12.276;2023-01-04T11:10:29;5.90;91.90
48994;DHT22;34804;49.214;12.276;2023-01-04T11:12:57;6.00;92.00
48994;DHT22;34804;49.214;12.276;2023-01-04T11:15:24;6.00;92.00
48994;DHT22;34804;49.214;12.276;2023-01-04T11:17:51;6.10;92.00
48994;DHT22;34804;49.214;12.276;2023-01-04T11:20:18;6.00;92.10
48994;DHT22;34804;49.214;12.276;2023-01-04T11:22:57;6.00;92.40
48994;DHT22;34804;49.214;12.276;2023-01-04T11:25:25;6.00;92.30
48994;DHT22;34804;49.214;12.276;2023-01-04T11:28:22;6.00;92.40
48994;DHT22;34804;49.214;12.276;2023-01-04T11:33:28;6.20;92.20
48994;DHT22;34804;49.214;12.276;2023-01-04T11:35:56;6.20;92.10
48994;DHT22;34804;49.214;12.276;2023-01-04T11:38:27;6.30;92.20
48994;DHT22;34804;49.214;12.276;2023-01-04T11:41:01;6.40;92.20
48994;DHT22;34804;49.214;12.276;2023-01-04T11:43:30;6.50;91.70
48994;DHT22;34804;49.214;12.276;2023-01-04T11:48:40;6.50;91.40
48994;DHT22;34804;49.214;12.276;2023-01-04T11:54:03;6.60;91.30
48994;DHT22;34804;49.214;12.276;2023-01-04T11:56:33;6.60;90.70
48994;DHT22;34804;49.214;12.276;2023-01-04T12:01:36;6.60;90.90
48994;DHT22;34804;49.214;12.276;2023-01-04T12:09:29;6.60;90.70
48994;DHT22;34804;49.214;12.276;2023-01-04T12:11:58;6.60;91.10
48994;DHT22;34804;49.214;12.276;2023-01-04T12:14:31;6.60;91.30
48994;DHT22;34804;49.214;12.276;2023-01-04T12:17:22;6.60;91.10
48994;DHT22;34804;49.214;12.276;2023-01-04T12:19:52;6.60;91.40
48994;DHT22;34804;49.214;12.276;2023-01-04T12:22:36;6.60;91.20
48994;DHT22;34804;49.214;12.276;2023-01-04T12:25:08;6.60;91.00
48994;DHT22;34804;49.214;12.276;2023-01-04T12:27:49;6.60;91.40
48994;DHT22;34804;49.214;12.276;2023-01-04T12:30:37;6.70;91.30
48994;DHT22;34804;49.214;12.276;2023-01-04T12:37:05;6.70;91.00
48994;DHT22;34804;49.214;12.276;2023-01-04T12:52:38;6.90;90.50
48994;DHT22;34804;49.214;12.276;2023-01-04T12:57:53;6.90;90.50
48994;DHT22;34804;49.214;12.276;2023-01-04T13:00:20;6.90;90.30
48994;DHT22;34804;49.214;12.276;2023-01-04T13:06:02;7.00;90.00
48994;DHT22;34804;49.214;12.276;2023-01-04T13:08:30;7.10;89.90
48994;DHT22;34804;49.214;12.276;2023-01-04T13:11:01;7.10;89.70
48994;DHT22;34804;49.214;12.276;2023-01-04T13:13:52;7.10;89.80
48994;DHT22;34804;49.214;12.276;2023-01-04T13:16:40;7.20;89.90
48994;DHT22;34804;49.214;12.276;2023-01-04T13:19:22;7.20;89.70
48994;DHT22;34804;49.214;12.276;2023-01-04T13:21:51;7.20;88.80
48994;DHT22;34804;49.214;12.276;2023-01-04T13:24:30;7.30;89.40
48994;DHT22;34804;49.214;12.276;2023-01-04T13:27:11;7.30;88.90
48994;DHT22;34804;49.214;12.276;2023-01-04T13:29:40;7.30;88.90
48994;DHT22;34804;49.214;12.276;2023-01-04T13:32:25;7.20;89.10
48994;DHT22;34804;49.214;12.276;2023-01-04T13:34:55;7.20;89.00
48994;DHT22;34804;49.214;12.276;2023-01-04T13:37:29;7.30;88.70
48994;DHT22;34804;49.214;12.276;2023-01-04T13:40:25;7.30;88.90
48994;DHT22;34804;49.214;12.276;2023-01-04T13:46:08;7.30;88.80
48994;DHT22;34804;49.214;12.276;2023-01-04T13:48:41;7.40;88.80
48994;DHT22;34804;49.214;12.276;2023-01-04T13:51:26;7.40;88.50
48994;DHT22;34804;49.214;12.276;2023-01-04T13:54:05;7.50;88.60
48994;DHT22;34804;49.214;12.276;2023-01-04T13:56:33;7.50;88.50
48994;DHT22;34804;49.214;12.276;2023-01-04T13:59:00;7.50;88.50
48994;DHT22;34804;49.214;12.276;2023-01-04T14:01:32;7.50;88.20
48994;DHT22;34804;49.214;12.276;2023-01-04T14:04:03;7.50;88.40
48994;DHT22;34804;49.214;12.276;2023-01-04T14:06:40;7.60;87.90
48994;DHT22;34804;49.214;12.276;2023-01-04T14:11:42;7.70;87.50
48994;DHT22;34804;49.214;12.276;2023-01-04T14:14:34;7.70;88.10
48994;DHT22;34804;49.214;12.276;2023-01-04T14:33:31;7.60;87.30
48994;DHT22;34804;49.214;12.276;2023-01-04T14:41:23;7.60;87.40
48994;DHT22;34804;49.214;12.276;2023-01-04T14:43:52;7.60;87.30
48994;DHT22;34804;49.214;12.276;2023-01-04T14:46:21;7.60;87.50
48994;DHT22;34804;49.214;12.276;2023-01-04T14:48:48;7.50;87.50
48994;DHT22;34804;49.214;12.276;2023-01-04T14:51:18;7.60;87.50
48994;DHT22;34804;49.214;12.276;2023-01-04T14:53:46;7.60;87.50
48994;DHT22;34804;49.214;12.276;2023-01-04T14:56:15;7.60;87.50
48994;DHT22;34804;49.214;12.276;2023-01-04T14:58:43;7.60;87.50
48994;DHT22;34804;49.214;12.276;2023-01-04T15:01:11;7.60;87.60
48994;DHT22;34804;49.214;12.276;2023-01-04T15:03:38;7.60;86.90
48994;DHT22;34804;49.214;12.276;2023-01-04T15:06:05;7.60;86.90
48994;DHT22;34804;49.214;12.276;2023-01-04T15:08:33;7.60;86.90
48994;DHT22;34804;49.214;12.276;2023-01-04T15:10:59;7.70;86.80
48994;DHT22;34804;49.214;12.276;2023-01-04T15:13:26;7.60;87.00
48994;DHT22;34804;49.214;12.276;2023-01-04T15:16:00;7.70;86.40
48994;DHT22;34804;49.214;12.276;2023-01-04T15:18:28;7.70;86.60
48994;DHT22;34804;49.214;12.276;2023-01-04T15:20:55;7.80;86.50
48994;DHT22;34804;49.214;12.276;2023-01-04T15:23:22;7.70;86.50
48994;DHT22;34804;49.214;12.276;2023-01-04T15:25:48;7.70;86.30
48994;DHT22;34804;49.214;12.276;2023-01-04T15:28:15;7.70;86.20
48994;DHT22;34804;49.214;12.276;2023-01-04T15:30:42;7.70;86.20
48994;DHT22;34804;49.214;12.276;2023-01-04T15:33:09;7.80;85.90
48994;DHT22;34804;49.214;12.276;2023-01-04T15:35:36;7.80;86.40
48994;DHT22;34804;49.214;12.276;2023-01-04T15:38:03;7.80;86.00
48994;DHT22;34804;49.214;12.276;2023-01-04T15:40:32;7.80;85.70
48994;DHT22;34804;49.214;12.276;2023-01-04T15:43:02;7.80;85.20
48994;DHT22;34804;49.214;12.276;2023-01-04T15:45:34;7.80;85.10
48994;DHT22;34804;49.214;12.276;2023-01-04T15:48:06;7.90;85.40
48994;DHT22;34804;49.214;12.276;2023-01-04T15:50:36;7.80;85.70
48994;DHT22;34804;49.214;12.276;2023-01-04T15:53:07;7.80;85.00
48994;DHT22;34804;49.214;12.276;2023-01-04T15:55:35;7.90;84.50
48994;DHT22;34804;49.214;12.276;2023-01-04T15:58:04;7.90;84.70
48994;DHT22;34804;49.214;12.276;2023-01-04T16:00:31;7.90;84.70
48994;DHT22;34804;49.214;12.276;2023-01-04T16:02:58;8.00;84.50
48994;DHT22;34804;49.214;12.276;2023-01-04T16:05:25;8.00;84.50
48994;DHT22;34804;49.214;12.276;2023-01-04T16:07:52;8.10;83.90
48994;DHT22;34804;49.214;12.276;2023-01-04T16:10:18;8.20;83.60
48994;DHT22;34804;49.214;12.276;2023-01-04T16:12:45;8.20;84.10
48994;DHT22;34804;49.214;12.276;2023-01-04T16:15:22;8.10;84.00
48994;DHT22;34804;49.214;12.276;2023-01-04T16:17:49;8.10;84.20
48994;DHT22;34804;49.214;12.276;2023-01-04T16:20:18;8.10;84.20
48994;DHT22;34804;49.214;12.276;2023-01-04T16:22:45;8.10;84.50
48994;DHT22;34804;49.214;12.276;2023-01-04T16:25:13;8.10;84.40
48994;DHT22;34804;49.214;12.276;2023-01-04T16:27:40;8.10;84.00
48994;DHT22;34804;49.214;12.276;2023-01-04T16:30:10;8.20;84.20
48994;DHT22;34804;49.214;12.276;2023-01-04T16:32:42;8.10;84.40
48994;DHT22;34804;49.214;12.276;2023-01-04T16:35:09;8.30;84.10
48994;DHT22;34804;49.214;12.276;2023-01-04T16:37:36;8.20;84.20
48994;DHT22;34804;49.214;12.276;2023-01-04T16:40:04;8.20;84.20
48994;DHT22;34804;49.214;12.276;2023-01-04T16:42:34;8.20;84.20
48994;DHT22;34804;49.214;12.276;2023-01-04T16:45:02;8.20;84.60
48994;DHT22;34804;49.214;12.276;2023-01-04T16:47:40;8.30;84.10
48994;DHT22;34804;49.214;12.276;2023-01-04T16:50:08;8.30;84.80
48994;DHT22;34804;49.214;12.276;2023-01-04T16:52:36;8.20;85.40
48994;DHT22;34804;49.214;12.276;2023-01-04T16:55:04;8.20;85.60
48994;DHT22;34804;49.214;12.276;2023-01-04T16:57:31;8.10;86.10
48994;DHT22;34804;49.214;12.276;2023-01-04T16:59:57;8.00;86.40
48994;DHT22;34804;49.214;12.276;2023-01-04T17:02:24;7.90;86.50
48994;DHT22;34804;49.214;12.276;2023-01-04T17:04:51;8.00;86.40
48994;DHT22;34804;49.214;12.276;2023-01-04T17:07:24;8.00;86.30
48994;DHT22;34804;49.214;12.276;2023-01-04T17:09:58;8.10;86.20
48994;DHT22;34804;49.214;12.276;2023-01-04T17:12:26;8.00;87.00
48994;DHT22;34804;49.214;12.276;2023-01-04T17:15:13;7.90;87.40
48994;DHT22;34804;49.214;12.276;2023-01-04T17:18:00;7.90;87.50
48994;DHT22;34804;49.214;12.276;2023-01-04T17:20:27;7.90;87.30
48994;DHT22;34804;49.214;12.276;2023-01-04T17:22:53;7.90;87.50
48994;DHT22;34804;49.214;12.276;2023-01-04T17:25:20;7.90;87.60
48994;DHT22;34804;49.214;12.276;2023-01-04T17:27:47;8.00;87.50
48994;DHT22;34804;49.214;12.276;2023-01-04T17:30:14;8.10;87.20
48994;DHT22;34804;49.214;12.276;2023-01-04T17:32:40;8.00;87.40
48994;DHT22;34804;49.214;12.276;2023-01-04T17:35:07;8.00;87.60
48994;DHT22;34804;49.214;12.276;2023-01-04T17:37:34;8.00;87.50
48994;DHT22;34804;49.214;12.276;2023-01-04T17:40:01;8.10;87.60
48994;DHT22;34804;49.214;12.276;2023-01-04T17:42:31;8.10;87.40
48994;DHT22;34804;49.214;12.276;2023-01-04T17:44:58;8.10;87.60
48994;DHT22;34804;49.214;12.276;2023-01-04T17:47:25;8.00;88.00
48994;DHT22;34804;49.214;12.276;2023-01-04T17:49:52;8.10;87.50
48994;DHT22;34804;49.214;12.276;2023-01-04T17:52:19;8.10;88.10
48994;DHT22;34804;49.214;12.276;2023-01-04T17:54:56;8.10;87.90
48994;DHT22;34804;49.214;12.276;2023-01-04T17:57:22;8.10;87.90
48994;DHT22;34804;49.214;12.276;2023-01-04T17:59:49;8.10;87.70
48994;DHT22;34804;49.214;12.276;2023-01-04T18:02:16;8.10;88.20
48994;DHT22;34804;49.214;12.276;2023-01-04T18:04:43;8.10;88.00
48994;DHT22;34804;49.214;12.276;2023-01-04T18:07:10;8.10;88.40
48994;DHT22;34804;49.214;12.276;2023-01-04T18:09:37;8.10;88.40
48994;DHT22;34804;49.214;12.276;2023-01-04T18:12:04;8.10;88.20
48994;DHT22;34804;49.214;12.276;2023-01-04T18:14:31;8.10;88.30